Time;durP1;ratioP1;P1;durP2;ratioP2;P2;SDS_P1;SDS_P2;PMS_P1;PMS_P2;Temp;Humidity;BMP_temperature;BMP_pressure;BME280_temperature;BME280_humidity;BME280_pressure;Samples;Min_cycle;Max_cycle;Signal;HPM_P1;HPM_P2
2023/06/19 00:00:54;;;;;;;;;;;20.90;44.00;;;16.99;81.66;95261.31;4916703;29;20362;-47
2023/06/19 00:03:20;;;;;;;;;;;20.80;44.00;;;17.02;80.84;95257.22;4914462;29;20532;-47
2023/06/19 00:05:46;;;;;;;;;;;20.70;44.10;;;17.01;81.05;95269.06;4914619;29;20005;-47
2023/06/19 00:08:12;;;;;;;;;;;20.70;44.20;;;16.94;81.42;95266.06;4924781;29;19915;-48
2023/06/19 00:10:37;;;;;;;;;;;20.70;44.30;;;16.89;82.02;95266.97;4917871;29;20396;-49
2023/06/19 00:13:03;;;;;;;;;;;20.70;44.40;;;16.90;81.99;95268.56;4917131;29;19915;-52
2023/06/19 00:15:29;;;;;;;;;;;20.60;44.40;;;16.89;81.80;95269.66;4919344;29;20293;-51
2023/06/19 00:17:56;;;;;;;;;;;20.70;44.60;;;16.83;82.09;95270.94;4923979;29;19911;-49
2023/06/19 00:20:23;;;;;;;;;;;20.60;44.60;;;16.81;81.80;95273.91;4916620;29;20012;-51
2023/06/19 00:22:51;;;;;;;;;;;20.60;44.70;;;16.80;82.15;95274.25;4917697;29;19918;-47
2023/06/19 00:25:19;;;;;;;;;;;20.60;44.80;;;16.78;82.55;95290.69;4922216;29;20335;-51
2023/06/19 00:27:46;;;;;;;;;;;20.50;44.90;;;16.74;82.79;95284.31;4925952;29;19919;-49
2023/06/19 00:30:12;;;;;;;;;;;20.50;45.00;;;16.72;83.25;95281.13;4915806;29;19946;-49
2023/06/19 00:32:46;;;;;;;;;;;20.50;45.10;;;16.75;83.08;95285.91;4926436;29;19996;-50
2023/06/19 00:35:14;;;;;;;;;;;20.60;45.20;;;16.78;82.62;95292.56;4917753;29;19910;-47
2023/06/19 00:37:44;;;;;;;;;;;20.60;45.30;;;16.75;83.17;95287.78;4916109;29;20290;-50
2023/06/19 00:40:24;;;;;;;;;;;20.60;45.40;;;16.80;82.54;95293.06;4916183;29;19911;-47
2023/06/19 00:42:50;;;;;;;;;;;20.60;45.50;;;16.87;82.61;95288.03;4925820;29;19921;-49
2023/06/19 00:45:15;;;;;;;;;;;20.60;45.50;;;16.94;82.09;95301.03;4916460;29;20378;-48
2023/06/19 00:47:41;;;;;;;;;;;20.60;45.60;;;16.89;82.95;95307.31;4915361;29;19961;-51
2023/06/19 00:50:07;;;;;;;;;;;20.60;45.60;;;16.97;82.24;95305.78;4927965;29;19911;-51
2023/06/19 00:52:34;;;;;;;;;;;20.70;45.70;;;16.99;82.36;95309.75;4909165;29;19910;-50
2023/06/19 00:55:00;;;;;;;;;;;20.70;45.80;;;17.00;82.40;95307.84;4923205;29;19911;-49
2023/06/19 00:57:26;;;;;;;;;;;20.80;45.90;;;17.07;82.36;95311.66;4933493;28;20309;-50
2023/06/19 00:59:52;;;;;;;;;;;20.80;46.00;;;17.15;81.26;95315.50;4920773;29;19910;-49
2023/06/19 01:02:23;;;;;;;;;;;20.80;45.90;;;17.19;80.56;95339.88;4915905;29;19969;-47
2023/06/19 01:04:51;;;;;;;;;;;20.90;46.00;;;17.26;80.46;95329.44;4915181;29;20424;-48
2023/06/19 01:07:42;;;;;;;;;;;20.90;46.00;;;17.31;80.37;95335.47;4915977;29;19911;-47
2023/06/19 01:10:18;;;;;;;;;;;21.00;46.00;;;17.35;79.86;95330.25;4915859;29;20006;-47
2023/06/19 01:12:55;;;;;;;;;;;21.00;46.00;;;17.35;81.17;95325.66;4929823;28;19917;-47
2023/06/19 01:15:23;;;;;;;;;;;21.10;46.10;;;17.39;81.24;95333.13;4915952;29;19918;-53
2023/06/19 01:17:50;;;;;;;;;;;21.10;46.10;;;17.41;81.11;95339.78;4914770;29;19918;-49
2023/06/19 01:20:16;;;;;;;;;;;21.20;46.10;;;17.48;80.35;95342.00;4928303;29;20345;-48
2023/06/19 01:22:45;;;;;;;;;;;21.20;46.10;;;17.50;79.96;95340.59;4914974;29;19957;-50
2023/06/19 01:25:14;;;;;;;;;;;21.20;46.10;;;17.48;81.25;95342.78;4916054;29;20024;-53
2023/06/19 01:27:42;;;;;;;;;;;21.30;46.20;;;17.56;80.97;95335.84;4915833;29;19922;-52
2023/06/19 01:30:12;;;;;;;;;;;21.30;46.20;;;17.55;80.68;95334.28;4916915;29;19918;-52
2023/06/19 01:33:03;;;;;;;;;;;21.30;46.20;;;17.57;80.62;95330.13;4926856;29;19912;-49
2023/06/19 01:35:35;;;;;;;;;;;21.30;46.20;;;17.57;80.98;95340.13;4914934;29;19942;-49
2023/06/19 01:38:03;;;;;;;;;;;21.30;46.20;;;17.60;80.42;95336.81;4946567;28;20440;-51
2023/06/19 01:40:31;;;;;;;;;;;21.40;46.20;;;17.64;80.39;95336.97;4912728;29;19918;-50
2023/06/19 01:43:00;;;;;;;;;;;21.40;46.20;;;17.63;80.24;95352.34;4930799;29;19914;-49
2023/06/19 01:45:28;;;;;;;;;;;21.40;46.20;;;17.71;80.11;95343.47;4920150;29;19957;-49
2023/06/19 01:47:55;;;;;;;;;;;21.40;46.30;;;17.79;79.63;95342.72;4933216;29;19965;-49
2023/06/19 01:50:23;;;;;;;;;;;21.50;46.30;;;17.80;79.80;95348.91;4927974;29;20443;-48
2023/06/19 01:52:49;;;;;;;;;;;21.50;46.40;;;17.85;79.39;95362.22;4936016;28;19918;-48
2023/06/19 01:55:16;;;;;;;;;;;21.60;46.30;;;17.87;78.64;95399.63;4919570;29;20374;-49
2023/06/19 01:57:42;;;;;;;;;;;21.60;46.50;;;17.90;79.00;95397.09;4932013;29;20269;-46
2023/06/19 02:00:09;;;;;;;;;;;21.70;46.40;;;17.96;78.47;95422.78;4918640;29;19911;-47
2023/06/19 02:02:38;;;;;;;;;;;21.70;46.40;;;18.00;78.90;95429.13;4919333;29;19919;-45
2023/06/19 02:05:04;;;;;;;;;;;21.70;46.40;;;18.07;79.27;95430.56;4918424;29;19911;-49
2023/06/19 02:07:30;;;;;;;;;;;21.80;46.60;;;18.20;79.56;95422.31;4918896;29;19911;-49
2023/06/19 02:09:57;;;;;;;;;;;21.80;46.80;;;18.35;81.15;95412.97;4919315;29;20006;-49
2023/06/19 02:12:23;;;;;;;;;;;21.90;47.00;;;18.50;81.39;95423.25;4920234;29;20013;-47
2023/06/19 02:14:49;;;;;;;;;;;22.00;47.40;;;18.62;81.88;95429.94;4933970;29;20238;-45
2023/06/19 02:17:15;;;;;;;;;;;22.10;47.70;;;18.66;83.23;95425.47;4933781;29;19911;-47
2023/06/19 02:19:41;;;;;;;;;;;22.10;47.80;;;18.72;83.82;95435.81;4938365;29;19965;-44
2023/06/19 02:22:06;;;;;;;;;;;22.20;47.90;;;18.78;83.99;95441.03;4937560;29;19914;-46
2023/06/19 02:24:32;;;;;;;;;;;22.30;48.10;;;18.77;85.04;95440.25;4929910;29;20353;-51
2023/06/19 02:26:58;;;;;;;;;;;22.30;48.00;;;18.82;85.02;95436.59;4936690;29;19926;-46
2023/06/19 02:29:25;;;;;;;;;;;22.40;47.90;;;18.80;85.74;95414.50;4931083;28;19911;-46
2023/06/19 02:31:51;;;;;;;;;;;22.40;47.90;;;18.83;85.87;95425.47;4933557;29;20045;-46
2023/06/19 02:34:17;;;;;;;;;;;22.40;47.80;;;18.83;88.72;95430.84;4952821;28;19993;-46
2023/06/19 02:36:43;;;;;;;;;;;22.50;47.90;;;18.83;89.35;95443.56;4934692;28;19911;-47
2023/06/19 02:39:09;;;;;;;;;;;22.50;48.00;;;18.80;91.37;95457.69;4934473;29;19910;-48
2023/06/19 02:41:35;;;;;;;;;;;22.40;48.10;;;18.73;93.43;95458.19;4946520;28;20061;-45
2023/06/19 02:44:01;;;;;;;;;;;22.30;48.40;;;18.63;95.59;95447.69;4924851;29;19922;-45
2023/06/19 02:46:27;;;;;;;;;;;22.10;49.30;;;18.55;97.28;95453.88;4922091;29;19910;-49
2023/06/19 02:48:53;;;;;;;;;;;22.00;48.90;;;18.43;97.64;95451.84;4928143;29;19918;-43
2023/06/19 02:51:19;;;;;;;;;;;21.90;49.20;;;18.33;99.15;95479.09;4936653;29;19911;-44
2023/06/19 02:53:44;;;;;;;;;;;21.80;49.40;;;18.16;100.00;95482.56;4927141;29;19922;-44
2023/06/19 02:56:12;;;;;;;;;;;21.70;49.70;;;18.02;100.00;95485.41;4936763;29;19958;-47
2023/06/19 02:58:38;;;;;;;;;;;21.60;50.50;;;17.97;100.00;95491.72;4926455;29;20392;-45
2023/06/19 03:01:06;;;;;;;;;;;21.50;50.20;;;17.96;100.00;95492.06;4916645;29;19910;-46
2023/06/19 03:03:37;;;;;;;;;;;21.40;50.40;;;17.81;100.00;95490.56;4924419;29;20013;-45
2023/06/19 03:06:05;;;;;;;;;;;21.40;50.70;;;17.71;100.00;95482.75;4932109;29;19910;-43
2023/06/19 03:08:33;;;;;;;;;;;21.30;50.90;;;17.67;100.00;95477.16;4936969;28;19966;-44
2023/06/19 03:10:59;;;;;;;;;;;21.20;51.00;;;17.64;100.00;95485.88;4947857;28;19911;-44
2023/06/19 03:13:25;;;;;;;;;;;21.10;51.20;;;17.61;100.00;95485.72;4932193;29;20041;-46
2023/06/19 03:15:50;;;;;;;;;;;21.10;51.50;;;17.53;100.00;95484.59;4925605;29;20425;-44
2023/06/19 03:18:16;;;;;;;;;;;21.00;51.60;;;17.51;100.00;95484.09;4919556;29;19985;-43
2023/06/19 03:20:42;;;;;;;;;;;21.00;51.80;;;17.47;100.00;95481.22;4936673;29;19942;-45
2023/06/19 03:23:08;;;;;;;;;;;21.00;51.90;;;17.42;100.00;95467.09;4933336;29;19915;-46
2023/06/19 03:25:34;;;;;;;;;;;21.00;52.00;;;17.39;100.00;95468.50;4936952;29;19918;-45
2023/06/19 03:28:04;;;;;;;;;;;20.90;52.20;;;17.39;100.00;95478.50;4936598;29;19918;-46
2023/06/19 03:30:30;;;;;;;;;;;21.00;52.40;;;17.38;100.00;95499.25;4922296;29;20281;-45
2023/06/19 03:32:56;;;;;;;;;;;20.90;52.50;;;17.34;100.00;95517.91;4931132;29;19945;-47
2023/06/19 03:35:22;;;;;;;;;;;20.90;52.70;;;17.28;100.00;95519.16;4928783;29;20397;-48
2023/06/19 03:37:47;;;;;;;;;;;20.90;52.90;;;17.30;100.00;95519.66;4932314;29;19917;-45
2023/06/19 03:40:13;;;;;;;;;;;20.90;53.20;;;17.30;100.00;95510.78;4936828;29;19910;-44
2023/06/19 03:42:42;;;;;;;;;;;20.90;53.30;;;17.23;100.00;95505.81;4926097;29;19918;-50
2023/06/19 03:45:08;;;;;;;;;;;20.90;53.30;;;17.28;100.00;95516.44;4935282;29;19910;-45
2023/06/19 03:47:34;;;;;;;;;;;20.90;53.40;;;17.27;100.00;95497.94;4927283;29;19914;-49
2023/06/19 03:50:00;;;;;;;;;;;20.90;53.50;;;17.26;100.00;95507.88;4928425;29;19926;-47
2023/06/19 03:52:25;;;;;;;;;;;20.90;53.60;;;17.26;100.00;95515.16;4936282;29;19918;-44
2023/06/19 03:54:51;;;;;;;;;;;20.90;53.70;;;17.15;100.00;95525.41;4922093;29;19919;-44
2023/06/19 03:57:17;;;;;;;;;;;20.90;53.70;;;17.21;100.00;95520.69;4936081;29;19945;-45
2023/06/19 03:59:42;;;;;;;;;;;20.90;53.80;;;17.24;100.00;95525.47;4930439;29;19910;-48
2023/06/19 04:02:08;;;;;;;;;;;20.90;53.90;;;17.27;100.00;95531.03;4928019;29;19914;-47
2023/06/19 04:04:34;;;;;;;;;;;20.90;53.90;;;17.25;100.00;95530.53;4934661;29;19911;-50
2023/06/19 04:07:02;;;;;;;;;;;21.00;54.00;;;17.25;100.00;95538.59;4919473;29;26698;-50
2023/06/19 04:09:28;;;;;;;;;;;21.00;54.10;;;17.28;100.00;95542.59;4935953;29;19914;-45
2023/06/19 04:11:53;;;;;;;;;;;21.00;54.20;;;17.30;100.00;95545.78;4925112;29;19910;-49
2023/06/19 04:14:19;;;;;;;;;;;21.00;54.20;;;17.28;100.00;95543.38;4934149;29;19922;-48
2023/06/19 04:16:45;;;;;;;;;;;21.00;54.30;;;17.27;100.00;95541.78;4927230;29;19911;-45
2023/06/19 04:19:10;;;;;;;;;;;21.00;54.30;;;17.27;100.00;95549.88;4934163;29;19958;-46
2023/06/19 04:21:36;;;;;;;;;;;21.10;54.40;;;17.28;100.00;95547.97;4935494;29;19915;-46
2023/06/19 04:24:04;;;;;;;;;;;21.10;54.50;;;17.29;100.00;95554.94;4922353;29;19918;-47
2023/06/19 04:26:30;;;;;;;;;;;21.10;54.50;;;17.26;100.00;95552.84;4916615;29;19965;-45
2023/06/19 04:28:56;;;;;;;;;;;21.10;54.60;;;17.28;100.00;95564.91;4915774;29;19930;-46
2023/06/19 04:31:23;;;;;;;;;;;21.10;54.60;;;17.31;100.00;95560.81;4905337;29;19922;-46
2023/06/19 04:33:49;;;;;;;;;;;21.20;54.70;;;17.33;100.00;95569.38;4897330;29;19914;-47
2023/06/19 04:36:14;;;;;;;;;;;21.20;54.80;;;17.32;100.00;95586.63;4920360;29;20394;-47
2023/06/19 04:38:41;;;;;;;;;;;21.20;55.00;;;17.41;100.00;95578.59;4917908;29;19952;-45
2023/06/19 04:41:07;;;;;;;;;;;21.20;55.40;;;17.49;100.00;95567.09;4908919;29;19911;-48
2023/06/19 04:43:34;;;;;;;;;;;21.30;55.50;;;17.48;100.00;95571.66;4916031;29;19922;-48
2023/06/19 04:45:59;;;;;;;;;;;21.30;55.50;;;17.46;100.00;95579.28;4917083;29;19922;-47
2023/06/19 04:48:25;;;;;;;;;;;21.30;55.40;;;17.45;100.00;95572.28;4905649;29;19918;-46
2023/06/19 04:50:52;;;;;;;;;;;21.30;55.60;;;17.49;100.00;95572.50;4928418;29;20457;-46
2023/06/19 04:53:18;;;;;;;;;;;21.30;55.60;;;17.51;100.00;95567.56;4909163;29;20007;-45
2023/06/19 04:55:44;;;;;;;;;;;21.30;55.70;;;17.49;100.00;95564.41;4919191;29;19911;-45
2023/06/19 04:58:10;;;;;;;;;;;21.20;55.60;;;17.52;100.00;95567.28;4916051;29;19911;-47
2023/06/19 05:00:36;;;;;;;;;;;21.20;55.70;;;17.52;100.00;95579.94;4907648;29;19911;-46
2023/06/19 05:03:02;;;;;;;;;;;21.20;55.70;;;17.52;100.00;95575.34;4910749;29;19915;-47
2023/06/19 05:05:30;;;;;;;;;;;21.20;55.80;;;17.52;100.00;95585.34;4920543;29;19911;-48
2023/06/19 05:07:56;;;;;;;;;;;21.20;55.80;;;17.51;100.00;95581.03;4934998;29;19911;-50
2023/06/19 05:10:22;;;;;;;;;;;21.30;55.90;;;17.49;100.00;95580.56;4911145;29;19911;-46
2023/06/19 05:12:48;;;;;;;;;;;21.20;55.90;;;17.48;100.00;95585.13;4924845;29;19976;-47
2023/06/19 05:15:13;;;;;;;;;;;21.20;56.00;;;17.45;100.00;95583.06;4915633;28;20388;-46
2023/06/19 05:17:39;;;;;;;;;;;21.20;56.10;;;17.47;100.00;95585.44;4914712;29;19918;-51
2023/06/19 05:20:08;;;;;;;;;;;21.20;56.20;;;17.43;100.00;95582.59;4911210;29;19911;-48
2023/06/19 05:22:34;;;;;;;;;;;21.20;56.20;;;17.39;100.00;95581.59;4896687;29;19939;-45
2023/06/19 05:25:02;;;;;;;;;;;21.20;56.30;;;17.34;100.00;95571.75;4906276;29;19911;-45
2023/06/19 05:27:27;;;;;;;;;;;21.10;56.30;;;17.31;100.00;95571.56;4915603;29;20370;-48
2023/06/19 05:29:53;;;;;;;;;;;21.10;56.40;;;17.27;100.00;95568.72;4900767;29;19987;-48
2023/06/19 05:32:19;;;;;;;;;;;21.00;56.40;;;17.21;100.00;95566.44;4908739;29;19915;-46
2023/06/19 05:34:44;;;;;;;;;;;21.00;56.50;;;17.18;100.00;95557.09;4898473;29;20267;-48
2023/06/19 05:37:10;;;;;;;;;;;20.90;56.50;;;17.15;100.00;95559.59;4922581;29;19997;-46
2023/06/19 05:39:36;;;;;;;;;;;20.90;56.60;;;17.08;100.00;95542.00;4897886;29;19911;-48
2023/06/19 05:42:02;;;;;;;;;;;20.90;56.60;;;17.08;100.00;95551.97;4906823;29;19953;-49
2023/06/19 05:44:27;;;;;;;;;;;20.90;56.70;;;17.01;100.00;95549.69;4908567;29;19911;-45
2023/06/19 05:46:53;;;;;;;;;;;20.80;56.70;;;17.05;100.00;95552.56;4912941;29;20070;-50
2023/06/19 05:49:19;;;;;;;;;;;20.80;56.70;;;16.93;100.00;95539.66;4924735;29;19918;-45
2023/06/19 05:51:45;;;;;;;;;;;20.80;56.80;;;17.00;100.00;95536.53;4914012;29;20446;-44
2023/06/19 05:54:10;;;;;;;;;;;20.80;56.80;;;16.95;100.00;95533.97;4906889;29;20345;-45
2023/06/19 05:56:36;;;;;;;;;;;20.90;56.80;;;16.98;100.00;95538.75;4915438;29;19911;-45
2023/06/19 05:59:02;;;;;;;;;;;20.90;56.80;;;17.01;100.00;95528.16;4914053;29;19929;-44
2023/06/19 06:01:29;;;;;;;;;;;21.00;56.80;;;17.03;100.00;95530.56;4905371;29;20349;-46
2023/06/19 06:03:56;;;;;;;;;;;21.00;56.80;;;17.08;100.00;95525.84;4915318;29;19915;-46
2023/06/19 06:06:25;;;;;;;;;;;21.10;56.80;;;17.03;100.00;95527.84;4907659;29;20361;-45
2023/06/19 06:08:51;;;;;;;;;;;21.10;56.80;;;17.10;100.00;95528.22;4903401;29;20381;-45
2023/06/19 06:11:17;;;;;;;;;;;21.20;57.40;;;17.13;100.00;95524.13;4911029;29;20005;-45
2023/06/19 06:13:43;;;;;;;;;;;21.20;57.30;;;17.14;100.00;95521.09;4925309;29;20006;-51
2023/06/19 06:16:09;;;;;;;;;;;21.30;56.80;;;17.13;100.00;95511.44;4925351;29;19997;-47
2023/06/19 06:18:35;;;;;;;;;;;21.30;56.70;;;17.24;100.00;95512.78;4906119;29;19917;-49
2023/06/19 06:21:01;;;;;;;;;;;21.40;56.70;;;17.23;100.00;95510.41;4913283;29;20437;-50
2023/06/19 06:23:27;;;;;;;;;;;21.50;56.70;;;17.26;100.00;95505.19;4916091;29;19914;-48
2023/06/19 06:25:52;;;;;;;;;;;21.60;56.70;;;17.33;100.00;95504.78;4928991;29;19918;-48
2023/06/19 06:28:18;;;;;;;;;;;21.60;56.60;;;17.48;100.00;95509.72;4919668;29;19923;-47
2023/06/19 06:30:44;;;;;;;;;;;21.70;56.60;;;17.64;100.00;95506.63;4916637;29;19910;-51
2023/06/19 06:33:10;;;;;;;;;;;21.90;56.60;;;17.72;100.00;95506.66;4931030;29;19911;-49
2023/06/19 06:35:35;;;;;;;;;;;22.00;56.50;;;17.74;100.00;95504.47;4914242;29;19969;-49
2023/06/19 06:38:02;;;;;;;;;;;22.20;56.40;;;17.84;100.00;95502.63;4921008;29;19968;-48
2023/06/19 06:40:28;;;;;;;;;;;22.30;56.20;;;18.06;100.00;95501.75;4935895;29;20440;-47
2023/06/19 06:42:54;;;;;;;;;;;22.50;56.20;;;18.27;100.00;95502.75;4909226;28;19915;-51
2023/06/19 06:45:20;;;;;;;;;;;22.60;56.20;;;18.39;100.00;95512.88;4928651;29;19919;-47
2023/06/19 06:47:45;;;;;;;;;;;22.80;56.10;;;18.49;100.00;95513.38;4927784;29;19922;-49
2023/06/19 06:50:11;;;;;;;;;;;22.90;56.00;;;18.71;100.00;95517.03;4926144;29;19910;-49
2023/06/19 06:52:38;;;;;;;;;;;23.10;56.00;;;18.74;100.00;95524.53;4920153;29;20437;-49
2023/06/19 06:55:04;;;;;;;;;;;23.20;56.00;;;18.97;100.00;95524.34;4916858;29;19914;-49
2023/06/19 06:57:30;;;;;;;;;;;23.30;55.90;;;19.06;100.00;95525.94;4916226;29;19910;-53
2023/06/19 06:59:56;;;;;;;;;;;23.60;55.90;;;19.21;100.00;95529.22;4914239;29;19922;-54
2023/06/19 07:02:22;;;;;;;;;;;23.80;55.80;;;19.51;100.00;95525.50;4926631;29;19937;-51
2023/06/19 07:04:49;;;;;;;;;;;24.00;55.50;;;19.96;100.00;95516.94;4925790;29;19956;-50
2023/06/19 07:07:15;;;;;;;;;;;24.40;55.40;;;20.42;98.09;95517.16;4923248;29;19910;-50
2023/06/19 07:09:41;;;;;;;;;;;24.90;55.20;;;20.95;93.75;95515.66;4923196;29;19911;-50
2023/06/19 07:12:07;;;;;;;;;;;25.50;55.00;;;21.52;92.32;95514.94;4924548;29;20053;-51
2023/06/19 07:14:33;;;;;;;;;;;26.20;54.60;;;21.87;86.74;95509.91;4936015;29;19914;-52
2023/06/19 07:16:59;;;;;;;;;;;26.70;54.40;;;22.14;82.56;95513.84;4921140;29;19918;-55
2023/06/19 07:19:24;;;;;;;;;;;27.10;53.80;;;22.26;81.20;95509.59;4916249;29;19911;-52
2023/06/19 07:21:51;;;;;;;;;;;27.40;53.40;;;22.30;79.81;95508.56;4914721;29;19969;-50
2023/06/19 07:24:17;;;;;;;;;;;27.60;53.00;;;22.54;80.34;95515.88;4910199;29;19911;-49
2023/06/19 07:26:43;;;;;;;;;;;27.70;52.60;;;22.83;81.92;95514.78;4945756;28;19937;-51
2023/06/19 07:29:08;;;;;;;;;;;27.90;52.30;;;22.92;75.94;95508.41;4924259;29;20350;-50
2023/06/19 07:31:34;;;;;;;;;;;28.10;52.00;;;22.90;77.33;95507.97;4930685;29;20378;-48
2023/06/19 07:34:00;;;;;;;;;;;28.20;51.50;;;22.99;76.03;95501.28;4914438;29;19911;-53
2023/06/19 07:36:25;;;;;;;;;;;28.40;51.20;;;23.21;76.88;95496.44;4914695;29;19942;-50
2023/06/19 07:38:52;;;;;;;;;;;28.60;51.00;;;23.42;73.82;95493.50;4927890;29;20391;-49
2023/06/19 07:41:17;;;;;;;;;;;28.80;50.70;;;23.69;75.22;95486.41;4914852;29;19910;-51
2023/06/19 07:43:43;;;;;;;;;;;29.00;50.40;;;23.95;69.93;95477.75;4918662;29;19918;-51
2023/06/19 07:46:10;;;;;;;;;;;29.30;50.20;;;24.10;69.29;95484.28;4915122;29;19918;-52
2023/06/19 07:48:36;;;;;;;;;;;29.60;49.90;;;24.05;69.52;95488.06;4929231;29;19914;-51
2023/06/19 07:51:02;;;;;;;;;;;29.80;49.50;;;23.96;71.89;95477.38;4927986;29;19966;-54
2023/06/19 07:53:27;;;;;;;;;;;29.90;49.10;;;24.23;70.34;95467.50;4938172;28;19911;-50
2023/06/19 07:55:53;;;;;;;;;;;30.10;48.90;;;24.48;71.19;95470.03;4925836;28;19911;-50
2023/06/19 07:58:19;;;;;;;;;;;30.30;49.40;;;24.77;71.51;95467.88;4935767;29;19914;-49
2023/06/19 08:00:44;;;;;;;;;;;30.40;48.60;;;25.03;66.44;95470.72;4924805;29;19957;-50
2023/06/19 08:03:10;;;;;;;;;;;30.60;48.50;;;25.14;67.06;95471.75;4927234;29;19918;-49
2023/06/19 08:05:36;;;;;;;;;;;30.80;48.30;;;25.07;67.83;95474.34;4924048;29;19915;-51
2023/06/19 08:08:02;;;;;;;;;;;30.80;48.00;;;25.20;67.32;95469.53;4927052;29;19911;-50
2023/06/19 08:10:28;;;;;;;;;;;31.00;48.00;;;25.31;65.78;95465.06;4920298;28;19911;-54
2023/06/19 08:12:54;;;;;;;;;;;31.10;47.80;;;25.49;64.37;95464.59;4917011;29;19910;-56
2023/06/19 08:15:20;;;;;;;;;;;31.20;47.50;;;25.74;63.22;95457.63;4934974;29;19969;-50
2023/06/19 08:17:45;;;;;;;;;;;31.40;47.20;;;26.14;64.84;95461.78;4926001;29;19946;-53
2023/06/19 08:21:07;;;;;;;;;;;31.80;46.90;;;26.59;66.48;95459.28;4917860;29;19946;-49
2023/06/19 08:23:33;;;;;;;;;;;32.20;46.70;;;27.14;61.83;95457.63;4929714;29;19918;-50
2023/06/19 08:25:59;;;;;;;;;;;32.70;46.50;;;27.71;61.76;95464.81;4941288;28;20281;-56
2023/06/19 08:28:24;;;;;;;;;;;33.20;46.20;;;27.85;59.43;95463.00;4932245;29;19922;-49
2023/06/19 08:30:50;;;;;;;;;;;33.70;45.90;;;28.30;54.48;95477.41;4923496;29;20485;-56
2023/06/19 08:33:16;;;;;;;;;;;34.10;45.30;;;28.86;53.80;95466.38;4934595;28;19922;-48
2023/06/19 08:35:42;;;;;;;;;;;34.50;44.60;;;29.19;52.18;95477.09;4925818;28;19933;-49
2023/06/19 08:38:07;;;;;;;;;;;34.90;44.30;;;28.99;51.40;95476.63;4930534;29;19910;-55
2023/06/19 08:40:34;;;;;;;;;;;35.10;43.90;;;29.08;53.14;95480.97;4934208;29;20004;-52
2023/06/19 08:42:59;;;;;;;;;;;35.40;43.40;;;29.53;50.54;95482.28;4929778;29;20411;-51
2023/06/19 08:45:27;;;;;;;;;;;35.80;43.00;;;29.86;52.28;95480.38;4934192;29;19915;-55
2023/06/19 08:48:03;;;;;;;;;;;36.10;42.60;;;30.09;47.96;95478.03;4925351;29;19910;-52
2023/06/19 08:50:30;;;;;;;;;;;36.50;42.70;;;30.42;48.26;95479.56;4934118;29;19910;-53
2023/06/19 08:52:56;;;;;;;;;;;37.00;41.70;;;30.70;51.29;95472.44;4929486;28;20358;-49
2023/06/19 08:55:23;;;;;;;;;;;37.30;41.40;;;31.00;47.60;95474.72;4925399;29;19910;-49
2023/06/19 08:57:50;;;;;;;;;;;37.70;40.90;;;31.25;43.15;95468.31;4934133;29;20456;-51
2023/06/19 09:00:28;;;;;;;;;;;38.00;40.40;;;31.46;45.02;95468.19;4909962;29;19915;-54
2023/06/19 09:03:02;;;;;;;;;;;38.40;39.90;;;31.69;43.64;95475.16;4926456;29;19969;-52
2023/06/19 09:05:28;;;;;;;;;;;38.70;39.30;;;31.64;45.30;95475.56;4921565;29;19918;-51
2023/06/19 09:08:02;;;;;;;;;;;38.90;38.90;;;32.00;43.70;95470.59;4914445;29;19918;-56
2023/06/19 09:10:28;;;;;;;;;;;39.30;38.60;;;31.87;40.90;95475.78;4914732;29;19961;-58
2023/06/19 09:13:02;;;;;;;;;;;39.20;38.40;;;31.78;42.38;95470.75;4914215;29;20374;-56
2023/06/19 09:15:35;;;;;;;;;;;39.10;38.30;;;31.86;45.13;95478.94;4915367;28;19945;-56
2023/06/19 09:18:11;;;;;;;;;;;38.90;38.80;;;32.11;45.48;95474.03;4923643;29;19953;-58
2023/06/19 09:20:47;;;;;;;;;;;38.80;38.10;;;32.19;44.57;95472.00;4933614;29;19914;-55
2023/06/19 09:23:13;;;;;;;;;;;38.70;38.00;;;32.17;42.47;95466.91;4929424;29;20021;-55
2023/06/19 09:25:51;;;;;;;;;;;38.60;37.90;;;32.02;45.83;95466.22;4934065;29;19918;-55
2023/06/19 09:28:26;;;;;;;;;;;38.60;37.50;;;32.22;43.74;95465.69;4933627;29;19919;-57
2023/06/19 09:30:55;;;;;;;;;;;38.60;37.50;;;32.07;43.00;95467.78;4925529;29;19918;-57
2023/06/19 09:33:20;;;;;;;;;;;38.70;37.40;;;31.92;45.76;95469.88;4934023;29;19918;-55
2023/06/19 09:35:50;;;;;;;;;;;38.70;37.20;;;32.21;44.40;95466.88;4924552;29;19911;-56
2023/06/19 09:38:18;;;;;;;;;;;38.80;37.00;;;32.23;46.27;95467.25;4931419;28;19961;-56
2023/06/19 09:40:48;;;;;;;;;;;38.90;36.90;;;32.20;43.40;95460.56;4948106;29;19914;-51
2023/06/19 09:43:25;;;;;;;;;;;39.00;36.60;;;32.26;41.42;95469.19;4928539;29;19921;-55
2023/06/19 09:45:54;;;;;;;;;;;39.10;36.50;;;32.47;40.28;95463.50;4934056;28;19911;-57
2023/06/19 09:48:28;;;;;;;;;;;39.10;36.20;;;32.79;42.49;95454.09;4940535;29;19946;-55
2023/06/19 09:51:04;;;;;;;;;;;39.20;36.10;;;33.23;39.81;95446.84;4933497;29;20362;-57
2023/06/19 09:53:32;;;;;;;;;;;39.30;36.00;;;33.39;39.62;95452.53;4926688;29;20410;-57
2023/06/19 09:55:57;;;;;;;;;;;39.40;35.70;;;33.62;40.36;95453.81;4928990;29;19918;-53
2023/06/19 09:58:25;;;;;;;;;;;39.60;35.70;;;33.94;36.94;95452.50;4936305;29;19910;-56
2023/06/19 10:00:51;;;;;;;;;;;39.80;36.20;;;34.20;41.06;95448.19;4934381;29;19910;-52
2023/06/19 10:03:17;;;;;;;;;;;40.10;35.40;;;34.30;40.26;95447.97;4927723;29;20001;-55
2023/06/19 10:05:44;;;;;;;;;;;40.40;35.20;;;34.39;36.50;95446.66;4928816;29;20477;-55
2023/06/19 10:08:10;;;;;;;;;;;40.70;34.90;;;34.38;36.15;95443.13;4937423;29;20293;-57
2023/06/19 10:10:45;;;;;;;;;;;40.80;34.50;;;34.25;36.42;95442.16;4927439;29;20328;-57
2023/06/19 10:13:15;;;;;;;;;;;40.80;34.10;;;34.28;37.86;95433.78;4942641;28;19969;-58
2023/06/19 10:15:43;;;;;;;;;;;40.80;34.70;;;33.95;37.29;95430.00;4936109;29;19926;-58
2023/06/19 10:18:18;;;;;;;;;;;40.70;33.80;;;33.79;35.51;95427.13;4925310;29;20377;-56
2023/06/19 10:20:46;;;;;;;;;;;40.60;33.50;;;33.92;37.27;95436.38;4924206;29;19914;-57
2023/06/19 10:23:20;;;;;;;;;;;40.70;33.30;;;33.71;36.68;95422.91;4932335;28;20374;-53
2023/06/19 10:25:59;;;;;;;;;;;40.70;33.10;;;33.32;36.93;95425.03;4951629;28;20285;-57
2023/06/19 10:31:08;;;;;;;;;;;40.70;32.80;;;33.58;36.54;95417.97;4968071;28;19980;-55
2023/06/19 10:33:37;;;;;;;;;;;40.80;32.60;;;33.57;36.72;95421.94;4962128;28;19937;-55
2023/06/19 10:36:25;;;;;;;;;;;40.90;32.40;;;33.84;36.54;95421.88;4974253;28;19956;-52
2023/06/19 10:38:51;;;;;;;;;;;41.00;32.20;;;34.16;38.45;95417.03;4975515;28;20376;-54
2023/06/19 10:41:20;;;;;;;;;;;41.10;32.00;;;34.25;34.71;95417.28;4970150;28;20396;-53
2023/06/19 10:44:04;;;;;;;;;;;41.40;32.60;;;34.22;34.73;95412.59;4969366;28;19925;-53
2023/06/19 10:46:35;;;;;;;;;;;41.50;31.70;;;34.32;34.04;95411.63;4990679;28;20368;-54
2023/06/19 10:49:04;;;;;;;;;;;41.50;31.40;;;34.28;33.82;95413.66;4964864;28;19965;-53
2023/06/19 10:51:43;;;;;;;;;;;41.60;31.20;;;34.62;34.44;95410.69;4975506;28;19964;-54
2023/06/19 10:54:09;;;;;;;;;;;41.80;31.70;;;35.11;33.54;95410.88;4964227;28;20380;-50
2023/06/19 10:56:35;;;;;;;;;;;42.00;30.90;;;35.27;33.43;95412.13;4974134;28;19959;-52
2023/06/19 10:59:11;;;;;;;;;;;42.10;30.70;;;35.48;33.02;95411.63;4971678;28;19918;-55
2023/06/19 11:01:39;;;;;;;;;;;42.40;30.50;;;35.59;31.55;95406.66;4975496;28;20324;-55
2023/06/19 11:04:11;;;;;;;;;;;42.60;30.30;;;35.47;31.76;95407.28;4972244;28;19960;-55
2023/06/19 11:06:39;;;;;;;;;;;42.70;30.00;;;35.07;31.04;95404.66;4958187;28;19936;-55
2023/06/19 11:09:12;;;;;;;;;;;42.90;29.90;;;35.39;30.11;95400.38;4974500;28;20390;-55
2023/06/19 11:11:47;;;;;;;;;;;42.90;29.70;;;35.43;34.86;95395.53;4966763;28;19961;-53
2023/06/19 11:14:15;;;;;;;;;;;43.00;29.50;;;35.54;33.21;95396.09;4958899;28;19922;-54
2023/06/19 11:16:48;;;;;;;;;;;43.20;29.50;;;35.72;34.12;95394.88;4975088;28;20367;-51
2023/06/19 11:19:19;;;;;;;;;;;43.30;29.20;;;36.12;30.90;95389.94;4972771;28;19909;-51